createdAt,value
2023-05-04T00:00:11.151Z,99.90
2023-05-04T00:02:38.028Z,99.90
2023-05-04T00:05:08.513Z,99.90
2023-05-04T00:07:35.445Z,99.90
2023-05-04T00:10:02.324Z,99.90
2023-05-04T00:12:29.237Z,99.90
2023-05-04T00:14:56.208Z,99.90
2023-05-04T00:17:23.046Z,99.90
2023-05-04T00:19:50.327Z,99.90
2023-05-04T00:22:17.155Z,99.90
2023-05-04T00:24:46.806Z,99.90
2023-05-04T00:27:13.675Z,99.90
2023-05-04T00:29:40.596Z,99.90
2023-05-04T00:32:07.428Z,99.90
2023-05-04T00:34:34.398Z,99.90
2023-05-04T00:37:01.434Z,99.90
2023-05-04T00:39:28.476Z,99.90
2023-05-04T00:41:55.965Z,99.90
2023-05-04T00:44:24.084Z,99.90
2023-05-04T00:46:55.440Z,99.90
2023-05-04T00:49:24.167Z,99.90
2023-05-04T00:51:51.683Z,99.90
2023-05-04T00:54:19.666Z,99.90
2023-05-04T00:56:47.243Z,99.90
2023-05-04T00:59:14.101Z,99.90
2023-05-04T01:01:41.502Z,99.90
2023-05-04T01:04:09.056Z,99.90
2023-05-04T01:06:49.245Z,99.90
2023-05-04T01:09:45.044Z,99.90
2023-05-04T01:12:27.622Z,99.90
2023-05-04T01:14:56.397Z,99.90
2023-05-04T01:17:23.312Z,99.90
2023-05-04T01:19:51.259Z,99.90
2023-05-04T01:22:18.026Z,99.90
2023-05-04T01:24:44.998Z,99.90
2023-05-04T01:27:20.143Z,99.90
2023-05-04T01:29:55.280Z,99.90
2023-05-04T01:32:23.799Z,99.90
2023-05-04T01:34:51.153Z,99.90
2023-05-04T01:37:17.973Z,99.90
2023-05-04T01:39:44.792Z,99.90
2023-05-04T01:42:12.029Z,99.90
2023-05-04T01:44:39.282Z,99.90
2023-05-04T01:47:06.213Z,99.90
2023-05-04T01:49:33.052Z,99.90
2023-05-04T01:51:59.877Z,99.90
2023-05-04T01:54:27.065Z,99.90
2023-05-04T01:56:53.835Z,99.90
2023-05-04T01:59:20.686Z,99.90
2023-05-04T02:01:47.499Z,99.90
2023-05-04T02:04:14.335Z,99.90
2023-05-04T02:06:41.338Z,99.90
2023-05-04T02:09:08.244Z,99.90
2023-05-04T02:11:34.980Z,99.90
2023-05-04T02:14:01.844Z,99.90
2023-05-04T02:16:28.785Z,99.90
2023-05-04T02:18:55.709Z,99.90
2023-05-04T02:21:22.531Z,99.90
2023-05-04T02:23:49.286Z,99.90
2023-05-04T02:26:16.117Z,99.90
2023-05-04T02:28:42.959Z,99.90
2023-05-04T02:31:09.741Z,99.90
2023-05-04T02:33:36.567Z,99.90
2023-05-04T02:36:03.528Z,99.90
2023-05-04T02:38:30.328Z,99.90
2023-05-04T02:40:58.477Z,99.90
2023-05-04T02:43:25.406Z,99.90
2023-05-04T02:45:52.201Z,99.90
2023-05-04T02:48:19.036Z,99.90
2023-05-04T02:50:46.557Z,99.90
2023-05-04T02:53:13.348Z,99.90
2023-05-04T02:55:40.133Z,99.90
2023-05-04T02:58:07.575Z,99.90
2023-05-04T03:00:34.373Z,99.90
2023-05-04T03:03:01.421Z,99.90
2023-05-04T03:05:28.233Z,99.90
2023-05-04T03:07:54.987Z,99.90
2023-05-04T03:10:21.965Z,99.90
2023-05-04T03:12:48.780Z,99.90
2023-05-04T03:15:15.721Z,99.90
2023-05-04T03:17:43.489Z,99.90
2023-05-04T03:20:10.866Z,99.90
2023-05-04T03:22:37.632Z,99.90
2023-05-04T03:25:05.014Z,99.90
2023-05-04T03:27:32.002Z,99.90
2023-05-04T03:29:58.754Z,99.90
2023-05-04T03:32:26.505Z,99.90
2023-05-04T03:34:53.354Z,99.90
2023-05-04T03:37:20.119Z,99.90
2023-05-04T03:39:46.974Z,99.90
2023-05-04T03:42:13.760Z,99.90
2023-05-04T03:44:40.927Z,99.90
2023-05-04T03:47:07.906Z,99.90
2023-05-04T03:49:35.556Z,99.90
2023-05-04T03:52:02.406Z,99.90
2023-05-04T03:54:29.184Z,99.90
2023-05-04T03:56:55.979Z,99.90
2023-05-04T03:59:22.737Z,99.90
2023-05-04T04:01:49.604Z,99.90
2023-05-04T04:04:16.442Z,99.90
2023-05-04T04:06:43.625Z,99.90
2023-05-04T04:09:10.480Z,99.90
2023-05-04T04:11:37.422Z,99.90
2023-05-04T04:14:04.204Z,99.90
2023-05-04T04:16:31.431Z,99.90
2023-05-04T04:18:58.411Z,99.90
2023-05-04T04:21:25.285Z,99.90
2023-05-04T04:23:52.064Z,99.90
2023-05-04T04:26:18.823Z,99.90
2023-05-04T04:28:50.393Z,99.90
2023-05-04T04:31:21.581Z,99.90
2023-05-04T04:33:51.327Z,99.90
2023-05-04T04:36:18.496Z,99.90
2023-05-04T04:38:46.452Z,99.90
2023-05-04T04:41:13.558Z,99.90
2023-05-04T04:43:40.788Z,99.90
2023-05-04T04:46:08.296Z,99.90
2023-05-04T04:48:35.252Z,99.90
2023-05-04T04:51:02.160Z,99.90
2023-05-04T04:53:28.957Z,99.90
2023-05-04T04:55:55.693Z,99.90
2023-05-04T04:58:22.525Z,99.90
2023-05-04T05:00:52.170Z,99.90
2023-05-04T05:03:19.916Z,99.90
2023-05-04T05:05:46.697Z,99.90
2023-05-04T05:08:13.468Z,99.90
2023-05-04T05:10:41.962Z,99.90
2023-05-04T05:13:10.719Z,99.90
2023-05-04T05:15:37.529Z,99.90
2023-05-04T05:18:04.404Z,99.90
2023-05-04T05:20:31.736Z,99.90
2023-05-04T05:22:58.789Z,99.90
2023-05-04T05:25:25.624Z,99.90
2023-05-04T05:27:52.369Z,99.90
2023-05-04T05:30:19.376Z,99.90
2023-05-04T05:32:48.994Z,99.90
2023-05-04T05:35:16.177Z,99.90
2023-05-04T05:37:43.054Z,99.90
2023-05-04T05:40:10.191Z,99.90
2023-05-04T05:42:36.989Z,99.90
2023-05-04T05:45:04.679Z,99.90
2023-05-04T05:47:31.699Z,99.90
2023-05-04T05:49:58.501Z,99.90
2023-05-04T05:52:25.380Z,99.90
2023-05-04T05:54:52.155Z,99.90
2023-05-04T05:57:20.225Z,99.90
2023-05-04T05:59:47.518Z,99.90
2023-05-04T06:02:15.008Z,99.90
2023-05-04T06:04:42.907Z,99.90
2023-05-04T06:07:09.717Z,99.90
2023-05-04T06:09:36.805Z,99.90
2023-05-04T06:12:05.072Z,99.90
2023-05-04T06:14:31.853Z,99.90
2023-05-04T06:16:58.926Z,99.90
2023-05-04T06:19:28.038Z,99.90
2023-05-04T06:21:56.093Z,99.90
2023-05-04T06:24:23.629Z,99.90
2023-05-04T06:26:50.598Z,99.90
2023-05-04T06:29:17.492Z,99.90
2023-05-04T06:31:48.080Z,99.90
2023-05-04T06:34:18.553Z,99.90
2023-05-04T06:36:45.723Z,99.90
2023-05-04T06:39:12.570Z,99.90
2023-05-04T06:41:39.332Z,99.90
2023-05-04T06:44:06.750Z,99.90
2023-05-04T06:46:37.372Z,99.90
2023-05-04T06:49:07.309Z,99.90
2023-05-04T06:51:37.641Z,99.90
2023-05-04T06:54:04.621Z,99.90
2023-05-04T06:56:32.464Z,99.90
2023-05-04T06:58:59.249Z,99.90
2023-05-04T07:01:26.247Z,99.90
2023-05-04T07:03:53.212Z,99.90
2023-05-04T07:06:21.201Z,99.90
2023-05-04T07:08:48.022Z,99.90
2023-05-04T07:11:14.884Z,99.90
2023-05-04T07:13:42.404Z,99.90
2023-05-04T07:16:09.481Z,99.90
2023-05-04T07:18:36.465Z,99.90
2023-05-04T07:21:21.927Z,99.90
2023-05-04T07:23:52.325Z,99.90
2023-05-04T07:26:19.224Z,99.00
2023-05-04T07:28:46.788Z,99.20
2023-05-04T07:31:14.443Z,99.90
2023-05-04T07:33:41.608Z,98.10
2023-05-04T07:36:08.599Z,96.80
2023-05-04T07:38:35.515Z,98.00
2023-05-04T07:41:02.451Z,99.10
2023-05-04T07:43:29.266Z,97.50
2023-05-04T07:45:56.686Z,97.00
2023-05-04T07:48:25.236Z,97.40
2023-05-04T07:50:53.947Z,96.80
2023-05-04T07:53:20.985Z,96.30
2023-05-04T07:55:48.592Z,95.50
2023-05-04T07:58:16.711Z,96.40
2023-05-04T08:00:43.627Z,95.20
2023-05-04T08:03:12.960Z,94.20
2023-05-04T08:05:39.811Z,92.80
2023-05-04T08:08:08.310Z,92.10
2023-05-04T08:10:39.028Z,88.20
2023-05-04T08:13:06.145Z,87.10
2023-05-04T08:15:33.091Z,90.30
2023-05-04T08:17:59.971Z,90.30
2023-05-04T08:20:26.876Z,90.90
2023-05-04T08:22:53.829Z,90.70
2023-05-04T08:25:22.289Z,90.00
2023-05-04T08:27:49.404Z,86.40
2023-05-04T08:30:17.023Z,88.40
2023-05-04T08:32:44.025Z,82.80
2023-05-04T08:35:10.949Z,85.20
2023-05-04T08:37:37.776Z,74.80
2023-05-04T08:40:05.820Z,75.60
2023-05-04T08:42:33.399Z,83.60
2023-05-04T08:45:01.279Z,83.90
2023-05-04T08:47:29.324Z,78.70
2023-05-04T08:49:56.746Z,80.30
2023-05-04T08:52:24.716Z,68.40
2023-05-04T08:54:57.050Z,67.80
2023-05-04T08:57:24.787Z,70.70
2023-05-04T08:59:55.884Z,67.20
2023-05-04T09:02:24.345Z,64.00
2023-05-04T09:04:52.332Z,66.20
2023-05-04T09:07:21.185Z,64.10
2023-05-04T09:09:50.877Z,75.80
2023-05-04T09:12:19.409Z,74.00
2023-05-04T09:14:46.719Z,72.70
2023-05-04T09:17:25.703Z,75.90
2023-05-04T09:20:03.654Z,71.10
2023-05-04T09:22:31.130Z,71.60
2023-05-04T09:25:14.068Z,69.80
2023-05-04T09:27:42.782Z,66.40
2023-05-04T09:30:10.253Z,64.90
2023-05-04T09:32:46.734Z,62.40
2023-05-04T09:35:29.225Z,63.60
2023-05-04T09:37:58.002Z,64.20
2023-05-04T09:40:37.829Z,68.50
2023-05-04T09:43:04.704Z,65.50
2023-05-04T09:45:42.272Z,74.10
2023-05-04T09:48:26.976Z,68.00
2023-05-04T09:50:55.914Z,69.20
2023-05-04T09:53:27.442Z,69.80
2023-05-04T09:56:16.000Z,66.50
2023-05-04T09:58:43.594Z,69.70
2023-05-04T10:01:11.436Z,69.80
2023-05-04T10:03:38.579Z,69.10
2023-05-04T10:06:06.123Z,69.10
2023-05-04T10:08:33.564Z,67.50
2023-05-04T10:11:00.396Z,66.50
2023-05-04T10:13:28.097Z,63.30
2023-05-04T10:16:12.562Z,62.40
2023-05-04T10:18:51.349Z,63.10
2023-05-04T10:21:50.049Z,62.20
2023-05-04T10:24:32.792Z,63.00
2023-05-04T10:27:05.342Z,63.10
2023-05-04T10:29:35.941Z,62.20
2023-05-04T10:32:03.360Z,61.00
2023-05-04T10:34:34.816Z,59.30
2023-05-04T10:37:03.261Z,59.00
2023-05-04T10:39:32.276Z,58.50
2023-05-04T10:42:03.995Z,59.30
2023-05-04T10:44:34.480Z,59.20
2023-05-04T10:47:06.696Z,57.10
2023-05-04T10:49:35.112Z,57.10
2023-05-04T10:52:20.142Z,55.50
2023-05-04T10:54:58.041Z,56.30
2023-05-04T10:57:24.862Z,57.20
2023-05-04T10:59:59.181Z,56.10
2023-05-04T11:02:28.781Z,58.10
2023-05-04T11:05:05.932Z,54.70
2023-05-04T11:07:36.721Z,55.60
2023-05-04T11:10:05.647Z,56.50
2023-05-04T11:12:33.032Z,52.70
2023-05-04T11:15:06.660Z,54.40
2023-05-04T11:17:34.163Z,58.60
2023-05-04T11:20:01.296Z,52.00
2023-05-04T11:22:28.393Z,53.70
2023-05-04T11:24:56.342Z,57.70
2023-05-04T11:27:27.675Z,58.10
2023-05-04T11:29:59.260Z,55.30
2023-05-04T11:32:43.790Z,53.60
2023-05-04T11:35:16.469Z,54.40
2023-05-04T11:37:44.797Z,55.00
2023-05-04T11:40:17.766Z,52.00
2023-05-04T11:42:45.199Z,51.20
2023-05-04T11:45:28.160Z,54.00
2023-05-04T11:47:56.761Z,51.10
2023-05-04T11:50:25.954Z,54.40
2023-05-04T11:53:10.073Z,51.90
2023-05-04T11:55:40.275Z,53.80
2023-05-04T11:58:11.679Z,54.20
2023-05-04T12:00:43.291Z,53.50
2023-05-04T12:03:27.869Z,53.40
2023-05-04T12:06:03.203Z,52.40
2023-05-04T12:08:34.010Z,51.80
2023-05-04T12:11:14.620Z,56.90
2023-05-04T12:13:42.748Z,53.80
2023-05-04T12:16:13.886Z,54.30
2023-05-04T12:18:41.572Z,53.20
2023-05-04T12:21:19.147Z,52.30
2023-05-04T12:23:47.509Z,49.30
2023-05-04T12:26:16.840Z,50.00
2023-05-04T12:28:45.734Z,49.50
2023-05-04T12:31:12.926Z,56.30
2023-05-04T12:33:39.885Z,51.00
2023-05-04T12:36:07.218Z,50.80
2023-05-04T12:38:34.597Z,50.40
2023-05-04T12:41:04.590Z,51.90
2023-05-04T12:43:32.332Z,48.50
2023-05-04T12:45:59.851Z,48.70
2023-05-04T12:48:29.661Z,52.30
2023-05-04T12:50:59.726Z,48.30
2023-05-04T12:53:30.552Z,51.50
2023-05-04T12:55:58.288Z,49.70
2023-05-04T12:58:25.469Z,53.80
2023-05-04T13:00:52.365Z,50.50
2023-05-04T13:03:19.677Z,50.00
2023-05-04T13:05:48.333Z,50.30
2023-05-04T13:08:15.553Z,50.20
2023-05-04T13:10:42.414Z,49.20
2023-05-04T13:13:09.297Z,48.60
2023-05-04T13:15:36.280Z,47.80
2023-05-04T13:18:03.510Z,51.10
2023-05-04T13:20:31.025Z,50.50
2023-05-04T13:22:58.644Z,49.70
2023-05-04T13:25:25.921Z,47.90
2023-05-04T13:27:53.128Z,46.10
2023-05-04T13:30:21.897Z,48.40
2023-05-04T13:32:49.610Z,46.30
2023-05-04T13:35:17.476Z,46.00
2023-05-04T13:37:44.333Z,49.40
2023-05-04T13:40:12.290Z,48.30
2023-05-04T13:42:39.268Z,49.80
2023-05-04T13:45:07.796Z,47.20
2023-05-04T13:47:37.242Z,48.60
2023-05-04T13:50:05.350Z,47.00
2023-05-04T13:52:35.184Z,47.90
2023-05-04T13:55:05.182Z,50.00
2023-05-04T13:57:32.655Z,49.00
2023-05-04T14:02:30.369Z,52.40
2023-05-04T14:04:57.376Z,50.90
2023-05-04T14:07:26.210Z,50.90
2023-05-04T14:09:52.975Z,50.00
2023-05-04T14:12:22.398Z,49.70
2023-05-04T14:14:50.776Z,50.80
2023-05-04T14:17:18.329Z,50.30
2023-05-04T14:19:45.748Z,52.00
2023-05-04T14:22:12.600Z,49.50
2023-05-04T14:24:39.594Z,51.30
2023-05-04T14:27:06.353Z,49.10
2023-05-04T14:29:34.355Z,47.00
2023-05-04T14:32:01.476Z,46.90
2023-05-04T14:34:28.381Z,49.70
2023-05-04T14:36:55.215Z,50.80
2023-05-04T14:39:22.534Z,49.50
2023-05-04T14:41:49.469Z,45.50
2023-05-04T14:44:16.515Z,48.50
2023-05-04T14:46:43.321Z,50.40
2023-05-04T14:49:11.263Z,48.20
2023-05-04T14:51:41.046Z,49.30
2023-05-04T14:54:07.795Z,47.60
2023-05-04T14:56:35.339Z,47.30
2023-05-04T14:59:02.366Z,47.80
2023-05-04T15:01:29.339Z,49.40
2023-05-04T15:03:56.669Z,48.20
2023-05-04T15:06:23.633Z,50.60
2023-05-04T15:08:50.419Z,48.90
2023-05-04T15:11:19.290Z,46.70
2023-05-04T15:13:46.470Z,50.10
2023-05-04T15:16:17.962Z,51.70
2023-05-04T15:18:47.012Z,51.40
2023-05-04T15:21:13.838Z,52.90
2023-05-04T15:23:40.795Z,50.40
2023-05-04T15:26:07.752Z,49.00
2023-05-04T15:28:34.674Z,49.10
2023-05-04T15:31:03.441Z,49.10
2023-05-04T15:33:32.204Z,49.10
2023-05-04T15:35:59.231Z,50.20
2023-05-04T15:38:28.622Z,50.60
2023-05-04T15:40:55.534Z,53.40
2023-05-04T15:43:22.403Z,51.00
2023-05-04T15:45:52.078Z,53.20
2023-05-04T15:48:20.401Z,53.90
2023-05-04T15:50:47.247Z,54.40
2023-05-04T15:53:14.093Z,52.20
2023-05-04T15:55:41.288Z,51.50
2023-05-04T15:58:08.269Z,52.20
2023-05-04T16:00:35.106Z,50.90
2023-05-04T16:03:02.040Z,51.00
2023-05-04T16:05:28.944Z,52.10
2023-05-04T16:07:55.895Z,51.20
2023-05-04T16:10:22.848Z,50.90
2023-05-04T16:12:50.237Z,50.80
2023-05-04T16:15:17.225Z,49.20
2023-05-04T16:17:44.103Z,51.80
2023-05-04T16:20:11.331Z,51.30
2023-05-04T16:22:38.152Z,50.80
2023-05-04T16:25:05.321Z,52.20
2023-05-04T16:27:32.117Z,51.00
2023-05-04T16:29:58.985Z,51.20
2023-05-04T16:32:25.844Z,53.50
2023-05-04T16:34:52.672Z,53.00
2023-05-04T16:37:19.631Z,50.70
2023-05-04T16:39:46.460Z,52.50
2023-05-04T16:42:13.290Z,54.00
2023-05-04T16:44:40.197Z,53.10
2023-05-04T16:47:07.214Z,54.80
2023-05-04T16:49:34.396Z,53.30
2023-05-04T16:52:02.039Z,51.00
2023-05-04T16:54:28.924Z,51.50
2023-05-04T16:56:55.813Z,55.10
2023-05-04T16:59:22.711Z,53.20
2023-05-04T17:01:49.560Z,55.80
2023-05-04T17:04:16.554Z,56.00
2023-05-04T17:06:43.444Z,55.00
2023-05-04T17:09:10.635Z,58.60
2023-05-04T17:11:37.583Z,58.50
2023-05-04T17:14:04.475Z,59.90
2023-05-04T17:16:31.530Z,62.10
2023-05-04T17:18:58.407Z,60.00
2023-05-04T17:21:25.308Z,69.80
2023-05-04T17:23:52.184Z,77.30
2023-05-04T17:26:19.733Z,78.40
2023-05-04T17:28:46.919Z,79.20
2023-05-04T17:31:13.811Z,80.00
2023-05-04T17:33:40.744Z,83.60
2023-05-04T17:36:07.999Z,84.60
2023-05-04T17:38:34.856Z,81.90
2023-05-04T17:41:01.708Z,88.20
2023-05-04T17:43:28.516Z,89.10
2023-05-04T17:45:56.070Z,89.40
2023-05-04T17:48:24.164Z,87.40
2023-05-04T17:50:51.433Z,86.50
2023-05-04T17:53:18.563Z,84.10
2023-05-04T17:55:45.484Z,86.30
2023-05-04T17:58:12.285Z,82.50
2023-05-04T18:00:39.257Z,80.70
2023-05-04T18:03:06.206Z,81.80
2023-05-04T18:05:33.133Z,82.70
2023-05-04T18:07:59.892Z,83.30
2023-05-04T18:10:27.164Z,84.30
2023-05-04T18:12:56.258Z,83.30
2023-05-04T18:15:24.294Z,84.60
2023-05-04T18:17:51.192Z,86.30
2023-05-04T18:20:18.029Z,87.60
2023-05-04T18:22:45.427Z,88.20
2023-05-04T18:25:13.639Z,88.30
2023-05-04T18:27:40.651Z,90.40
2023-05-04T18:30:08.529Z,90.80
2023-05-04T18:32:36.160Z,90.50
2023-05-04T18:35:03.352Z,90.10
2023-05-04T18:37:31.028Z,90.10
2023-05-04T18:39:58.463Z,90.00
2023-05-04T18:42:25.377Z,90.40
2023-05-04T18:44:53.168Z,89.90
2023-05-04T18:47:20.144Z,90.80
2023-05-04T18:49:54.719Z,91.30
2023-05-04T18:52:21.975Z,92.30
2023-05-04T18:54:49.718Z,92.10
2023-05-04T18:57:16.767Z,92.30
2023-05-04T18:59:43.632Z,92.50
2023-05-04T19:02:10.714Z,92.90
2023-05-04T19:04:50.784Z,92.70
2023-05-04T19:07:17.798Z,92.00
2023-05-04T19:09:47.301Z,91.90
2023-05-04T19:12:14.320Z,92.10
2023-05-04T19:14:43.413Z,92.70
2023-05-04T19:17:10.502Z,92.80
2023-05-04T19:19:40.169Z,92.70
2023-05-04T19:22:07.423Z,93.40
2023-05-04T19:24:37.827Z,93.80
2023-05-04T19:27:04.731Z,94.30
2023-05-04T19:29:31.547Z,93.90
2023-05-04T19:32:01.206Z,94.10
2023-05-04T19:34:30.168Z,93.90
2023-05-04T19:36:57.015Z,93.90
2023-05-04T19:39:23.798Z,93.80
2023-05-04T19:41:50.708Z,94.20
2023-05-04T19:44:17.449Z,94.20
2023-05-04T19:46:45.433Z,94.40
2023-05-04T19:49:12.372Z,94.50
2023-05-04T19:51:39.138Z,95.20
2023-05-04T19:54:05.925Z,96.00
2023-05-04T19:56:32.714Z,95.70
2023-05-04T19:58:59.493Z,96.20
2023-05-04T20:01:26.380Z,95.90
2023-05-04T20:03:53.733Z,95.80
2023-05-04T20:06:20.569Z,95.70
2023-05-04T20:08:47.337Z,95.90
2023-05-04T20:11:14.292Z,96.20
2023-05-04T20:13:42.607Z,96.40
2023-05-04T20:16:09.443Z,96.60
2023-05-04T20:18:36.307Z,96.70
2023-05-04T20:21:03.448Z,97.00
2023-05-04T20:23:30.224Z,97.10
2023-05-04T20:25:57.059Z,97.00
2023-05-04T20:28:26.141Z,97.10
2023-05-04T20:30:52.965Z,97.20
2023-05-04T20:33:19.926Z,97.30
2023-05-04T20:35:46.926Z,96.90
2023-05-04T20:38:14.233Z,97.10
2023-05-04T20:40:41.039Z,96.80
2023-05-04T20:43:07.832Z,97.60
2023-05-04T20:45:34.622Z,97.30
2023-05-04T20:48:03.816Z,97.10
2023-05-04T20:50:31.096Z,97.10
2023-05-04T20:52:58.374Z,97.50
2023-05-04T20:55:25.133Z,98.10
2023-05-04T20:57:52.246Z,98.70
2023-05-04T21:00:19.967Z,99.10
2023-05-04T21:02:47.196Z,98.90
2023-05-04T21:05:14.188Z,98.60
2023-05-04T21:07:40.984Z,98.70
2023-05-04T21:10:08.774Z,98.50
2023-05-04T21:12:35.832Z,99.00
2023-05-04T21:15:02.655Z,99.30
2023-05-04T21:17:29.461Z,99.50
2023-05-04T21:19:56.281Z,99.90
2023-05-04T21:22:23.069Z,99.90
2023-05-04T21:24:50.327Z,99.90
2023-05-04T21:27:17.078Z,99.90
2023-05-04T21:29:43.847Z,99.90
2023-05-04T21:32:10.650Z,99.90
2023-05-04T21:34:37.450Z,99.90
2023-05-04T21:37:04.264Z,99.90
2023-05-04T21:39:31.655Z,99.90
2023-05-04T21:41:58.525Z,99.90
2023-05-04T21:44:25.794Z,99.90
2023-05-04T21:46:52.646Z,99.90
2023-05-04T21:49:19.429Z,99.90
2023-05-04T21:51:46.411Z,99.90
2023-05-04T21:54:13.196Z,99.90
2023-05-04T21:56:43.127Z,99.90
2023-05-04T21:59:09.886Z,99.90
2023-05-04T22:01:36.736Z,99.90
2023-05-04T22:04:06.874Z,99.90
2023-05-04T22:06:34.230Z,99.90
2023-05-04T22:09:01.154Z,99.90
2023-05-04T22:11:27.984Z,99.90
2023-05-04T22:13:54.751Z,99.90
2023-05-04T22:16:21.814Z,99.90
2023-05-04T22:18:49.581Z,99.90
2023-05-04T22:21:16.405Z,99.90
2023-05-04T22:23:43.221Z,99.90
2023-05-04T22:26:10.105Z,99.90
2023-05-04T22:28:36.889Z,99.90
2023-05-04T22:31:03.839Z,99.90
2023-05-04T22:33:30.855Z,99.90
2023-05-04T22:35:57.807Z,99.90
2023-05-04T22:38:24.691Z,99.90
2023-05-04T22:40:51.502Z,99.90
2023-05-04T22:43:18.367Z,99.90
2023-05-04T22:45:45.166Z,99.90
2023-05-04T22:48:14.059Z,99.90
2023-05-04T22:50:41.562Z,99.90
2023-05-04T22:53:09.694Z,99.90
2023-05-04T22:55:36.634Z,99.90
2023-05-04T22:58:03.654Z,99.90
2023-05-04T23:00:30.491Z,99.90
2023-05-04T23:02:57.344Z,99.90
2023-05-04T23:05:24.351Z,99.90
2023-05-04T23:07:54.393Z,99.90
2023-05-04T23:10:21.337Z,99.90
2023-05-04T23:12:48.208Z,99.90
2023-05-04T23:15:15.114Z,99.90
2023-05-04T23:17:42.004Z,99.90
2023-05-04T23:20:10.098Z,99.90
2023-05-04T23:22:37.109Z,99.90
2023-05-04T23:25:04.387Z,99.90
2023-05-04T23:27:31.154Z,99.90
2023-05-04T23:29:57.954Z,99.90
2023-05-04T23:32:24.912Z,99.90
2023-05-04T23:34:51.703Z,99.90
2023-05-04T23:37:18.553Z,99.90
2023-05-04T23:39:47.088Z,99.90
2023-05-04T23:42:13.920Z,99.90
2023-05-04T23:44:40.668Z,99.90
2023-05-04T23:47:07.986Z,99.90
2023-05-04T23:49:34.808Z,99.90
2023-05-04T23:52:01.883Z,99.90
2023-05-04T23:54:28.662Z,99.90
2023-05-04T23:56:55.426Z,99.90
2023-05-04T23:59:22.186Z,99.90
